Dakota, Illinois
Current Conditions -  °F | °C
As of 3:15 PM on Saturday 22 Nov 2014 (Local Time) from KFEP Reporting Station
Haze Haze  
Wind Chill: 43°   Ceiling: 1200
Heat Index: 48°   Visibility: 5mi
Dew Point: 46°   Wind: 13mph
Humidity: 93%   Direction: 210°SSW
Pressure: 29.84"   Gusts: 18mph
Location:  42.39°N, 89.53°W
Report Text: KFEP 222115Z AUTO 21011G16KT 5SM BR OVC012 09/08 A2984 RMK AO2 T00890079
Loading
Personal Weather Stations






























Interactive Weather Map New forecast layout! Learn more

10-Day Weather Forecast

Advertisements
Track Severe Weather on mobile